French Village, Canada
Current Conditions -  °F | °C
As of 7:00 PM on Wednesday 22 Oct 2014 (Local Time) from CYAW Reporting Station
Light Rain Light Rain  
Wind Chill: 52°   Ceiling: 800
Heat Index: 52°   Visibility: 4mi
Dew Point: 52°   Wind: 20mph
Humidity: 100%   Direction: 70°ENE
Pressure: 30.16"   Gusts: 32mph
Location:  44.7°N, 63.88°W
Report Text: CYAW 222200Z 07017G28KT 4SM -RA BR BKN008 OVC015 11/11 A3016 RMK SF6NS2 DA-421FT SLP216
Loading
Personal Weather Stations






























Interactive Weather Map
Tropical Storm Tracking
New forecast layout! Learn more

10-Day Weather Forecast

Advertisements
Track Severe Weather on mobile